Terminal Aerodrome Forecast
Issued by NWS

Home | Current Version | Previous Version | Text Only | Print | Product List | Glossary On
Versions: 1 2 3 4 5 6 7 8 9 10 11 12 13 14 15 16 17 18
000
FTUS41 KBTV 301134
TAFMPV
TAF
KMPV 301134Z 3012/3112 17006KT P6SM OVC008
     FM301400 18009KT P6SM VCSH BKN017
     FM301500 18010KT P6SM VCSH BKN040
     FM301900 18011KT P6SM -SHRA OVC040
     FM310300 18007KT P6SM VCSH BKN020=

USA.gov is the U.S. government's official web portal to all federal, state and local government web resources and services.